createdAt,value
2022-10-09T00:01:23.712Z,70.41
2022-10-09T00:03:52.216Z,70.33
2022-10-09T00:06:28.126Z,70.09
2022-10-09T00:08:54.965Z,70.80
2022-10-09T00:11:26.569Z,70.79
2022-10-09T00:13:54.550Z,70.50
2022-10-09T00:16:21.619Z,70.54
2022-10-09T00:18:48.490Z,70.75
2022-10-09T00:21:30.311Z,70.65
2022-10-09T00:23:59.286Z,70.24
2022-10-09T00:26:26.063Z,70.04
2022-10-09T00:28:52.973Z,70.59
2022-10-09T00:31:19.979Z,70.14
2022-10-09T00:33:46.853Z,70.51
2022-10-09T00:36:19.270Z,70.75
2022-10-09T00:38:46.032Z,70.68
2022-10-09T00:41:16.366Z,70.73
2022-10-09T00:43:48.813Z,70.73
2022-10-09T00:46:27.182Z,70.99
2022-10-09T00:49:20.836Z,70.92
2022-10-09T00:51:49.928Z,70.55
2022-10-09T00:54:20.316Z,70.36
2022-10-09T00:56:47.541Z,70.46
2022-10-09T00:59:14.944Z,71.05
2022-10-09T01:01:41.929Z,70.78
2022-10-09T01:04:08.707Z,70.54
2022-10-09T01:07:00.083Z,71.05
2022-10-09T01:09:54.488Z,70.91
2022-10-09T01:12:33.031Z,70.79
2022-10-09T01:15:16.610Z,70.82
2022-10-09T01:17:58.193Z,70.81
2022-10-09T01:20:32.081Z,70.90
2022-10-09T01:23:22.692Z,70.83
2022-10-09T01:26:26.733Z,70.78
2022-10-09T01:28:57.182Z,70.72
2022-10-09T01:31:28.130Z,70.86
2022-10-09T01:33:54.695Z,71.03
2022-10-09T01:36:23.236Z,70.76
2022-10-09T01:38:50.753Z,71.13
2022-10-09T01:41:17.834Z,70.94
2022-10-09T01:43:44.252Z,71.05
2022-10-09T01:46:20.072Z,71.36
2022-10-09T01:48:55.128Z,71.22
2022-10-09T01:51:27.529Z,71.08
2022-10-09T01:53:56.470Z,71.34
2022-10-09T01:56:26.097Z,71.44
2022-10-09T01:58:57.911Z,71.27
2022-10-09T02:01:28.166Z,71.07
2022-10-09T02:03:58.330Z,71.46
2022-10-09T02:06:27.092Z,71.13
2022-10-09T02:08:55.264Z,70.81
2022-10-09T02:11:26.024Z,71.15
2022-10-09T02:13:54.509Z,71.11
2022-10-09T02:16:30.609Z,71.15
2022-10-09T02:19:10.771Z,71.57
2022-10-09T02:21:46.198Z,71.04
2022-10-09T02:24:20.049Z,71.21
2022-10-09T02:26:47.018Z,71.20
2022-10-09T02:29:15.623Z,71.28
2022-10-09T02:31:43.461Z,71.30
2022-10-09T02:34:12.816Z,71.85
2022-10-09T02:36:40.080Z,71.01
2022-10-09T02:39:07.249Z,71.72
2022-10-09T02:41:34.373Z,71.54
2022-10-09T02:44:01.671Z,71.60
2022-10-09T02:46:28.168Z,71.65
2022-10-09T02:48:54.654Z,71.45
2022-10-09T02:51:21.751Z,71.44
2022-10-09T02:53:48.279Z,71.39
2022-10-09T02:56:14.653Z,71.31
2022-10-09T02:58:41.197Z,71.67
2022-10-09T03:01:08.513Z,71.43
2022-10-09T03:03:34.946Z,71.67
2022-10-09T03:06:05.828Z,71.86
2022-10-09T03:08:32.209Z,71.36
2022-10-09T03:10:58.662Z,71.76
2022-10-09T03:13:25.144Z,71.69
2022-10-09T03:15:51.621Z,71.31
2022-10-09T03:18:18.423Z,71.88
2022-10-09T03:20:44.986Z,71.99
2022-10-09T03:23:11.814Z,71.85
2022-10-09T03:25:38.230Z,71.45
2022-10-09T03:28:04.732Z,71.71
2022-10-09T03:30:31.187Z,71.92
2022-10-09T03:32:57.559Z,72.24
2022-10-09T03:35:23.972Z,72.17
2022-10-09T03:37:50.366Z,72.26
2022-10-09T03:40:16.804Z,71.69
2022-10-09T03:42:43.163Z,71.51
2022-10-09T03:45:09.903Z,71.48
2022-10-09T03:47:36.267Z,72.10
2022-10-09T03:50:02.638Z,71.86
2022-10-09T03:52:29.022Z,72.01
2022-10-09T03:54:55.453Z,71.84
2022-10-09T03:57:21.916Z,71.27
2022-10-09T03:59:48.285Z,71.99
2022-10-09T04:02:14.725Z,71.62
2022-10-09T04:04:41.108Z,72.04
2022-10-09T04:07:07.704Z,72.06
2022-10-09T04:09:34.101Z,71.60
2022-10-09T04:12:00.575Z,71.37
2022-10-09T04:14:26.969Z,71.70
2022-10-09T04:16:53.727Z,71.66
2022-10-09T04:19:20.104Z,71.70
2022-10-09T04:21:46.651Z,71.30
2022-10-09T04:24:13.017Z,71.81
2022-10-09T04:26:39.611Z,71.50
2022-10-09T04:29:06.054Z,71.58
2022-10-09T04:31:32.537Z,71.90
2022-10-09T04:33:59.042Z,72.56
2022-10-09T04:36:25.488Z,71.97
2022-10-09T04:38:52.644Z,72.49
2022-10-09T04:41:19.169Z,71.84
2022-10-09T04:43:45.580Z,72.04
2022-10-09T04:46:14.442Z,72.18
2022-10-09T04:48:42.899Z,72.80
2022-10-09T04:51:10.410Z,72.91
2022-10-09T04:53:37.887Z,72.70
2022-10-09T04:56:07.786Z,72.73
2022-10-09T04:58:39.514Z,72.44
2022-10-09T05:01:15.747Z,72.52
2022-10-09T05:03:42.655Z,72.52
2022-10-09T05:06:10.973Z,72.64
2022-10-09T05:08:38.148Z,72.87
2022-10-09T05:11:10.381Z,72.75
2022-10-09T05:13:39.554Z,72.78
2022-10-09T05:16:09.446Z,73.06
2022-10-09T05:18:40.657Z,72.71
2022-10-09T05:21:07.114Z,72.73
2022-10-09T05:23:33.762Z,72.63
2022-10-09T05:26:04.182Z,72.79
2022-10-09T05:28:30.649Z,73.50
2022-10-09T05:30:57.048Z,73.29
2022-10-09T05:33:23.445Z,73.41
2022-10-09T05:35:54.585Z,72.98
2022-10-09T05:38:22.233Z,73.08
2022-10-09T05:41:12.990Z,73.46
2022-10-09T05:43:42.139Z,72.99
2022-10-09T05:46:11.711Z,73.22
2022-10-09T05:48:40.013Z,73.05
2022-10-09T05:51:27.451Z,73.03
2022-10-09T05:53:54.548Z,73.03
2022-10-09T05:56:23.858Z,73.08
2022-10-09T05:58:56.320Z,72.92
2022-10-09T06:01:25.626Z,73.43
2022-10-09T06:03:54.660Z,73.19
2022-10-09T06:06:22.491Z,72.89
2022-10-09T06:08:49.088Z,73.26
2022-10-09T06:11:18.739Z,73.53
2022-10-09T06:13:45.746Z,73.46
2022-10-09T06:16:13.984Z,72.97
2022-10-09T06:18:45.436Z,73.80
2022-10-09T06:21:15.598Z,72.97
2022-10-09T06:23:42.543Z,73.24
2022-10-09T06:26:12.926Z,73.84
2022-10-09T06:28:40.196Z,73.56
2022-10-09T06:31:11.819Z,73.64
2022-10-09T06:33:40.501Z,73.39
2022-10-09T06:36:10.558Z,73.57
2022-10-09T06:38:38.194Z,73.00
2022-10-09T06:41:07.109Z,73.39
2022-10-09T06:43:33.738Z,73.11
2022-10-09T06:46:01.766Z,72.94
2022-10-09T06:48:30.941Z,73.68
2022-10-09T06:51:05.641Z,73.22
2022-10-09T06:53:41.590Z,73.61
2022-10-09T06:56:11.277Z,73.50
2022-10-09T06:58:39.131Z,73.68
2022-10-09T07:01:12.617Z,73.30
2022-10-09T07:03:41.437Z,73.44
2022-10-09T07:06:11.985Z,73.73
2022-10-09T07:08:40.149Z,73.61
2022-10-09T07:11:15.017Z,73.44
2022-10-09T07:13:42.823Z,73.79
2022-10-09T07:16:10.673Z,73.68
2022-10-09T07:18:38.102Z,73.41
2022-10-09T07:21:07.768Z,73.18
2022-10-09T07:23:35.520Z,73.36
2022-10-09T07:26:02.654Z,73.06
2022-10-09T07:28:29.951Z,72.88
2022-10-09T07:30:56.771Z,73.24
2022-10-09T07:33:23.229Z,73.07
2022-10-09T07:35:56.895Z,73.55
2022-10-09T07:38:27.065Z,73.23
2022-10-09T07:40:53.986Z,73.50
2022-10-09T07:43:21.664Z,73.34
2022-10-09T07:45:48.098Z,73.45
2022-10-09T07:48:14.535Z,73.08
2022-10-09T07:50:40.918Z,72.52
2022-10-09T07:53:08.671Z,72.81
2022-10-09T07:55:35.426Z,72.50
2022-10-09T07:58:01.990Z,72.47
2022-10-09T08:00:28.418Z,72.37
2022-10-09T08:02:55.293Z,71.85
2022-10-09T08:05:21.688Z,72.15
2022-10-09T08:07:48.062Z,71.77
2022-10-09T08:10:14.446Z,72.16
2022-10-09T08:12:41.026Z,71.78
2022-10-09T08:15:07.877Z,71.52
2022-10-09T08:17:34.473Z,71.58
2022-10-09T08:20:00.877Z,71.22
2022-10-09T08:22:27.240Z,71.53
2022-10-09T08:24:53.598Z,70.87
2022-10-09T08:27:19.969Z,70.91
2022-10-09T08:29:46.337Z,70.79
2022-10-09T08:32:12.734Z,70.90
2022-10-09T08:34:39.245Z,70.93
2022-10-09T08:37:05.686Z,71.02
2022-10-09T08:39:32.300Z,71.00
2022-10-09T08:42:03.102Z,70.48
2022-10-09T08:44:39.422Z,70.61
2022-10-09T08:47:23.919Z,70.56
2022-10-09T08:50:20.268Z,70.54
2022-10-09T08:52:56.507Z,69.77
2022-10-09T08:55:30.803Z,69.98
2022-10-09T08:58:03.003Z,70.10
2022-10-09T09:00:38.181Z,70.05
2022-10-09T09:03:44.229Z,69.81
2022-10-09T09:06:35.534Z,69.87
2022-10-09T09:09:16.521Z,70.04
2022-10-09T09:11:50.611Z,69.54
2022-10-09T09:14:26.150Z,69.36
2022-10-09T09:17:18.751Z,69.43
2022-10-09T09:20:12.649Z,69.44
2022-10-09T09:22:45.357Z,69.29
2022-10-09T09:25:25.570Z,69.27
2022-10-09T09:27:54.618Z,69.29
2022-10-09T09:30:25.576Z,68.85
2022-10-09T09:33:01.548Z,68.70
2022-10-09T09:35:49.368Z,68.64
2022-10-09T09:38:16.200Z,68.58
2022-10-09T09:40:47.162Z,68.22
2022-10-09T09:43:20.099Z,68.28
2022-10-09T09:45:47.788Z,67.69
2022-10-09T09:48:35.620Z,67.91
2022-10-09T09:51:27.062Z,67.57
2022-10-09T09:53:55.854Z,67.64
2022-10-09T09:56:53.212Z,67.51
2022-10-09T09:59:29.629Z,66.95
2022-10-09T10:02:23.578Z,67.19
2022-10-09T10:04:52.835Z,67.27
2022-10-09T10:07:29.073Z,67.16
2022-10-09T10:10:17.151Z,66.37
2022-10-09T10:12:52.488Z,66.66
2022-10-09T10:15:31.065Z,66.54
2022-10-09T10:18:12.702Z,66.06
2022-10-09T10:20:48.121Z,65.51
2022-10-09T10:23:51.668Z,65.34
2022-10-09T10:26:31.097Z,65.25
2022-10-09T10:29:06.007Z,65.27
2022-10-09T10:31:41.567Z,65.24
2022-10-09T10:34:16.727Z,64.73
2022-10-09T10:36:44.129Z,64.88
2022-10-09T10:39:24.674Z,64.92
2022-10-09T10:41:53.825Z,64.35
2022-10-09T10:44:49.243Z,64.24
2022-10-09T10:47:24.064Z,63.96
2022-10-09T10:49:50.903Z,63.52
2022-10-09T10:52:40.074Z,62.94
2022-10-09T10:55:21.142Z,63.36
2022-10-09T10:57:55.286Z,62.45
2022-10-09T11:00:21.952Z,62.79
2022-10-09T11:02:54.872Z,62.88
2022-10-09T11:05:26.956Z,62.38
2022-10-09T11:08:13.729Z,62.25
2022-10-09T11:11:01.923Z,62.53
2022-10-09T11:13:53.484Z,62.54
2022-10-09T11:16:40.892Z,62.66
2022-10-09T11:19:41.825Z,61.68
2022-10-09T11:22:34.647Z,61.15
2022-10-09T11:25:04.720Z,61.34
2022-10-09T11:27:41.021Z,60.85
2022-10-09T11:30:16.232Z,61.27
2022-10-09T11:33:05.299Z,61.15
2022-10-09T11:35:40.818Z,61.11
2022-10-09T11:38:23.887Z,61.60
2022-10-09T11:40:50.956Z,61.50
2022-10-09T11:43:20.020Z,60.58
2022-10-09T11:46:06.532Z,60.43
2022-10-09T11:48:48.377Z,60.25
2022-10-09T11:51:30.111Z,59.79
2022-10-09T11:53:57.357Z,59.96
2022-10-09T11:56:29.108Z,59.58
2022-10-09T11:59:06.718Z,58.73
2022-10-09T12:01:41.212Z,58.29
2022-10-09T12:04:13.788Z,58.03
2022-10-09T12:06:49.334Z,57.87
2022-10-09T12:09:22.549Z,57.45
2022-10-09T12:12:00.027Z,57.35
2022-10-09T12:14:29.200Z,57.49
2022-10-09T12:16:57.242Z,57.17
2022-10-09T12:19:40.192Z,56.55
2022-10-09T12:22:16.760Z,55.70
2022-10-09T12:24:47.469Z,55.63
2022-10-09T12:27:34.396Z,55.71
2022-10-09T12:30:13.937Z,55.62
2022-10-09T12:32:45.854Z,55.06
2022-10-09T12:35:33.882Z,54.46
2022-10-09T12:38:00.217Z,53.87
2022-10-09T12:40:33.401Z,53.48
2022-10-09T12:43:10.699Z,53.71
2022-10-09T12:45:43.913Z,53.82
2022-10-09T12:48:13.060Z,53.92
2022-10-09T12:50:40.187Z,53.03
2022-10-09T12:53:14.063Z,53.00
2022-10-09T12:55:44.398Z,53.63
2022-10-09T12:58:22.197Z,53.10
2022-10-09T13:00:51.857Z,52.58
2022-10-09T13:03:35.010Z,53.18
2022-10-09T13:06:03.846Z,53.56
2022-10-09T13:08:35.957Z,52.54
2022-10-09T13:11:16.309Z,52.58
2022-10-09T13:13:42.774Z,52.61
2022-10-09T13:16:10.570Z,52.16
2022-10-09T13:18:38.288Z,52.34
2022-10-09T13:21:22.209Z,52.14
2022-10-09T13:23:48.885Z,52.66
2022-10-09T13:26:26.999Z,52.81
2022-10-09T13:28:55.109Z,53.15
2022-10-09T13:31:21.850Z,52.93
2022-10-09T13:33:48.754Z,52.02
2022-10-09T13:36:17.677Z,51.39
2022-10-09T13:38:44.865Z,51.53
2022-10-09T13:41:17.663Z,52.02
2022-10-09T13:43:44.367Z,51.97
2022-10-09T13:46:10.781Z,52.13
2022-10-09T13:48:37.878Z,51.50
2022-10-09T13:51:07.006Z,51.75
2022-10-09T13:53:34.161Z,52.12
2022-10-09T13:56:01.350Z,52.11
2022-10-09T13:58:28.212Z,52.13
2022-10-09T14:00:54.618Z,52.36
2022-10-09T14:03:21.212Z,52.33
2022-10-09T14:05:47.576Z,52.25
2022-10-09T14:08:14.009Z,51.93
2022-10-09T14:10:42.128Z,52.97
2022-10-09T14:13:09.858Z,53.35
2022-10-09T14:15:40.117Z,53.17
2022-10-09T14:18:06.904Z,52.74
2022-10-09T14:20:34.237Z,52.38
2022-10-09T14:23:00.927Z,52.08
2022-10-09T14:25:27.328Z,51.96
2022-10-09T14:27:53.783Z,51.77
2022-10-09T14:30:20.201Z,52.81
2022-10-09T14:32:46.899Z,52.50
2022-10-09T14:35:15.224Z,52.13
2022-10-09T14:37:43.382Z,51.95
2022-10-09T14:40:11.712Z,52.28
2022-10-09T14:42:39.139Z,52.60
2022-10-09T14:45:06.652Z,52.44
2022-10-09T14:47:33.087Z,52.42
2022-10-09T14:49:59.485Z,52.89
2022-10-09T14:52:25.842Z,52.66
2022-10-09T14:54:52.180Z,53.00
2022-10-09T14:57:18.568Z,53.00
2022-10-09T14:59:44.938Z,52.80
2022-10-09T15:02:17.804Z,52.74
2022-10-09T15:04:44.209Z,52.76
2022-10-09T15:07:10.590Z,53.43
2022-10-09T15:09:37.014Z,53.59
2022-10-09T15:12:03.485Z,53.01
2022-10-09T15:14:29.919Z,52.58
2022-10-09T15:16:56.320Z,52.97
2022-10-09T15:19:25.473Z,52.82
2022-10-09T15:21:51.838Z,52.29
2022-10-09T15:24:18.217Z,52.43
2022-10-09T15:26:48.070Z,52.45
2022-10-09T15:29:14.430Z,52.69
2022-10-09T15:31:41.654Z,52.87
2022-10-09T15:34:10.021Z,53.44
2022-10-09T15:36:39.510Z,53.56
2022-10-09T15:39:07.701Z,53.26
2022-10-09T15:41:36.874Z,53.29
2022-10-09T15:44:16.435Z,53.78
2022-10-09T15:46:43.173Z,53.26
2022-10-09T15:49:09.841Z,52.94
2022-10-09T15:51:36.319Z,53.18
2022-10-09T15:54:03.285Z,53.52
2022-10-09T15:56:30.145Z,53.88
2022-10-09T15:58:57.990Z,54.00
2022-10-09T16:01:24.957Z,53.83
2022-10-09T16:03:52.090Z,54.47
2022-10-09T16:06:21.704Z,54.62
2022-10-09T16:08:49.023Z,54.40
2022-10-09T16:11:20.208Z,54.16
2022-10-09T16:13:49.784Z,54.11
2022-10-09T16:16:22.383Z,54.57
2022-10-09T16:18:49.238Z,54.78
2022-10-09T16:21:18.781Z,54.65
2022-10-09T16:23:45.875Z,55.03
2022-10-09T16:26:17.268Z,55.14
2022-10-09T16:28:44.600Z,54.96
2022-10-09T16:31:19.121Z,55.35
2022-10-09T16:33:45.520Z,55.67
2022-10-09T16:36:12.641Z,55.87
2022-10-09T16:38:39.617Z,55.99
2022-10-09T16:41:14.943Z,55.97
2022-10-09T16:43:41.286Z,56.39
2022-10-09T16:46:12.556Z,56.53
2022-10-09T16:48:38.924Z,56.80
2022-10-09T16:51:10.113Z,56.97
2022-10-09T16:53:36.511Z,57.25
2022-10-09T16:56:24.477Z,57.42
2022-10-09T16:58:55.465Z,57.81
2022-10-09T17:01:22.365Z,57.99
2022-10-09T17:03:48.748Z,58.11
2022-10-09T17:06:20.546Z,58.47
2022-10-09T17:08:47.844Z,58.73
2022-10-09T17:11:15.797Z,58.57
2022-10-09T17:13:42.272Z,58.66
2022-10-09T17:16:15.782Z,58.73
2022-10-09T17:18:44.812Z,58.98
2022-10-09T17:21:12.647Z,58.78
2022-10-09T17:23:39.380Z,58.86
2022-10-09T17:26:12.742Z,58.89
2022-10-09T17:28:40.720Z,59.00
2022-10-09T17:31:09.876Z,59.14
2022-10-09T17:33:44.798Z,59.28
2022-10-09T17:36:19.570Z,59.18
2022-10-09T17:38:47.386Z,59.19
2022-10-09T17:41:15.722Z,59.21
2022-10-09T17:43:42.140Z,59.39
2022-10-09T17:46:08.935Z,59.29
2022-10-09T17:48:36.103Z,59.20
2022-10-09T17:51:04.040Z,59.35
2022-10-09T17:53:31.499Z,59.16
2022-10-09T17:56:04.285Z,59.28
2022-10-09T17:58:30.803Z,59.21
2022-10-09T18:00:57.337Z,59.12
2022-10-09T18:03:23.779Z,59.13
2022-10-09T18:05:51.214Z,59.07
2022-10-09T18:08:18.886Z,59.07
2022-10-09T18:10:45.335Z,59.37
2022-10-09T18:13:11.772Z,59.47
2022-10-09T18:15:42.918Z,59.74
2022-10-09T18:18:10.632Z,59.59
2022-10-09T18:20:38.684Z,59.48
2022-10-09T18:23:05.639Z,59.39
2022-10-09T18:25:32.469Z,59.49
2022-10-09T18:27:59.301Z,59.38
2022-10-09T18:30:27.437Z,59.50
2022-10-09T18:32:53.811Z,59.46
2022-10-09T18:35:20.145Z,59.55
2022-10-09T18:37:46.520Z,59.78
2022-10-09T18:40:13.958Z,59.74
2022-10-09T18:42:40.337Z,59.60
2022-10-09T18:45:07.880Z,59.66
2022-10-09T18:47:35.021Z,59.54
2022-10-09T18:50:06.525Z,59.74
2022-10-09T18:52:34.301Z,59.57
2022-10-09T18:55:01.746Z,59.56
2022-10-09T18:57:28.923Z,59.79
2022-10-09T18:59:57.278Z,60.00
2022-10-09T19:02:26.412Z,59.79
2022-10-09T19:04:56.258Z,60.15
2022-10-09T19:07:22.637Z,59.90
2022-10-09T19:09:53.601Z,60.15
2022-10-09T19:12:22.845Z,60.24
2022-10-09T19:14:49.415Z,60.41
2022-10-09T19:17:15.798Z,60.19
2022-10-09T19:19:42.204Z,60.08
2022-10-09T19:22:14.067Z,60.20
2022-10-09T19:24:42.050Z,59.98
2022-10-09T19:27:08.614Z,60.09
2022-10-09T19:29:35.067Z,60.20
2022-10-09T19:32:01.441Z,60.28
2022-10-09T19:34:29.030Z,60.23
2022-10-09T19:36:55.413Z,60.44
2022-10-09T19:39:22.244Z,60.53
2022-10-09T19:41:50.886Z,60.63
2022-10-09T19:44:17.694Z,60.47
2022-10-09T19:46:44.125Z,60.87
2022-10-09T19:49:10.510Z,60.93
2022-10-09T19:51:37.478Z,61.12
2022-10-09T19:54:06.132Z,61.34
2022-10-09T19:56:34.471Z,61.38
2022-10-09T19:59:03.263Z,61.36
2022-10-09T20:01:32.645Z,61.66
2022-10-09T20:04:01.863Z,61.52
2022-10-09T20:06:28.558Z,61.61
2022-10-09T20:08:55.648Z,61.74
2022-10-09T20:11:22.959Z,61.78
2022-10-09T20:13:53.427Z,61.69
2022-10-09T20:16:21.340Z,61.93
2022-10-09T20:18:47.825Z,61.98
2022-10-09T20:21:16.573Z,62.13
2022-10-09T20:23:44.221Z,62.33
2022-10-09T20:26:17.843Z,62.40
2022-10-09T20:28:44.960Z,62.51
2022-10-09T20:31:16.239Z,62.16
2022-10-09T20:33:42.741Z,62.31
2022-10-09T20:36:18.790Z,61.90
2022-10-09T20:38:45.226Z,61.90
2022-10-09T20:41:11.720Z,61.43
2022-10-09T20:43:38.581Z,61.59
2022-10-09T20:46:13.417Z,61.41
2022-10-09T20:48:41.520Z,61.27
2022-10-09T20:51:08.219Z,61.30
2022-10-09T20:53:34.625Z,61.06
2022-10-09T20:56:02.401Z,60.97
2022-10-09T20:58:29.210Z,60.90
2022-10-09T21:00:56.431Z,60.77
2022-10-09T21:03:22.897Z,60.39
2022-10-09T21:05:49.385Z,60.64
2022-10-09T21:08:15.758Z,60.60
2022-10-09T21:10:44.239Z,60.24
2022-10-09T21:13:10.761Z,60.39
2022-10-09T21:15:55.373Z,60.12
2022-10-09T21:18:21.743Z,60.06
2022-10-09T21:20:49.384Z,60.24
2022-10-09T21:23:18.268Z,60.28
2022-10-09T21:25:53.070Z,60.20
2022-10-09T21:28:21.432Z,60.24
2022-10-09T21:30:48.197Z,60.19
2022-10-09T21:33:14.942Z,60.11
2022-10-09T21:35:47.734Z,60.02
2022-10-09T21:38:16.774Z,60.35
2022-10-09T21:40:43.173Z,60.04
2022-10-09T21:43:10.485Z,60.46
2022-10-09T21:45:38.709Z,60.23
2022-10-09T21:48:05.737Z,60.12
2022-10-09T21:50:33.067Z,60.59
2022-10-09T21:53:00.541Z,60.43
2022-10-09T21:55:26.927Z,60.49
2022-10-09T21:57:53.490Z,60.51
2022-10-09T22:00:20.853Z,60.35
2022-10-09T22:02:47.411Z,60.96
2022-10-09T22:05:14.243Z,60.51
2022-10-09T22:07:40.784Z,60.92
2022-10-09T22:10:07.550Z,60.65
2022-10-09T22:12:34.229Z,60.98
2022-10-09T22:15:00.628Z,60.42
2022-10-09T22:17:27.415Z,60.94
2022-10-09T22:20:01.248Z,60.65
2022-10-09T22:22:27.830Z,61.05
2022-10-09T22:24:54.234Z,61.00
2022-10-09T22:27:20.652Z,61.27
2022-10-09T22:29:47.066Z,61.40
2022-10-09T22:32:13.435Z,61.00
2022-10-09T22:34:39.841Z,61.18
2022-10-09T22:37:06.220Z,61.31
2022-10-09T22:39:32.605Z,61.33
2022-10-09T22:41:59.005Z,61.30
2022-10-09T22:44:25.357Z,61.43
2022-10-09T22:46:51.757Z,61.45
2022-10-09T22:49:18.387Z,61.29
2022-10-09T22:51:45.276Z,61.34
2022-10-09T22:54:12.970Z,61.29
2022-10-09T22:56:42.013Z,61.74
2022-10-09T22:59:09.986Z,61.50
2022-10-09T23:01:45.463Z,61.42
2022-10-09T23:04:13.567Z,61.32
2022-10-09T23:06:41.512Z,61.73
2022-10-09T23:09:10.740Z,61.63
2022-10-09T23:11:37.117Z,61.52
2022-10-09T23:14:03.983Z,61.70
2022-10-09T23:16:31.133Z,61.91
2022-10-09T23:19:04.158Z,62.43
2022-10-09T23:21:33.098Z,61.65
2022-10-09T23:23:59.557Z,62.12
2022-10-09T23:26:28.675Z,61.98
2022-10-09T23:28:59.181Z,62.17
2022-10-09T23:31:26.661Z,62.16
2022-10-09T23:33:53.329Z,61.95
2022-10-09T23:36:21.692Z,62.53
2022-10-09T23:38:48.383Z,62.10
2022-10-09T23:41:18.413Z,62.57
2022-10-09T23:43:47.306Z,62.26
2022-10-09T23:46:16.813Z,62.67
2022-10-09T23:48:43.530Z,62.98
2022-10-09T23:51:10.572Z,62.61
2022-10-09T23:53:37.237Z,62.54
2022-10-09T23:56:28.930Z,62.66
2022-10-09T23:58:56.566Z,62.85
